GCGM/GMZ METAR and TAF weather

Enter ICAO airport designator
Station Type Date Time Source
GCGM METAR 2018/07/21 13:30 UTC NOAA

GCGM 211330Z 21006KT 160V260 CAVOK 27/15 Q1018 RMK R09/21004KT 150V320 ARP/21005KT 160V280


Station Type Date Time Source
GCGM Decoded METAR 2018/07/21 13:30 UTC NOAA

Station name not available
Jul 21, 2018 - 09:30 AM EDT / 2018.07.21 1330 UTC
Wind: from the SSW (210 degrees) at 7 MPH (6 KT) (direction variable):0
Visibility: greater than 7 mile(s):0
Temperature: 80 F (27 C)
Dew Point: 59 F (15 C)
Relative Humidity: 47%
Pressure (altimeter): 30.06 in. Hg (1018 hPa)
ob: GCGM 211330Z 21006KT 160V260 CAVOK 27/15 Q1018 RMK R09/21004KT 150V320 ARP/21005KT 160V280
cycle: 13

Station Type Date Time Source
GCGM TAF 2018/07/21 09:00 UTC NOAA

TAF GCGM 210800Z 2109/2209 22007KT CAVOK TX26/2114Z TN21/2205Z


Example: see airport list